createdAt,value
2018-05-09T00:00:13.139Z,99.99
2018-05-09T00:01:13.404Z,99.99
2018-05-09T00:02:13.121Z,99.99
2018-05-09T00:03:13.371Z,99.99
2018-05-09T00:04:13.299Z,99.99
2018-05-09T00:05:13.090Z,99.99
2018-05-09T00:06:13.338Z,99.99
2018-05-09T00:07:13.325Z,99.99
2018-05-09T00:08:13.320Z,99.99
2018-05-09T00:09:13.308Z,99.99
2018-05-09T00:10:13.295Z,99.99
2018-05-09T00:11:13.016Z,99.99
2018-05-09T00:12:13.280Z,99.99
2018-05-09T00:13:13.264Z,99.99
2018-05-09T00:14:12.992Z,99.99
2018-05-09T00:15:12.977Z,99.99
2018-05-09T00:16:12.964Z,99.99
2018-05-09T00:17:13.217Z,99.99
2018-05-09T00:18:12.938Z,99.99
2018-05-09T00:19:13.196Z,99.99
2018-05-09T00:20:13.482Z,99.99
2018-05-09T00:21:12.906Z,99.99
2018-05-09T00:22:12.895Z,99.99
2018-05-09T00:23:13.156Z,99.99
2018-05-09T00:24:13.138Z,99.99
2018-05-09T00:25:13.134Z,99.99
2018-05-09T00:26:13.117Z,99.99
2018-05-09T00:27:13.110Z,99.99
2018-05-09T00:28:13.097Z,99.99
2018-05-09T00:29:13.080Z,99.99
2018-05-09T00:30:12.804Z,99.99
2018-05-09T00:31:12.790Z,99.99
2018-05-09T00:32:13.048Z,99.99
2018-05-09T00:33:12.771Z,99.99
2018-05-09T00:34:12.756Z,99.99
2018-05-09T00:35:12.746Z,99.99
2018-05-09T00:36:13.004Z,99.99
2018-05-09T00:37:12.985Z,99.99
2018-05-09T00:38:12.980Z,99.99
2018-05-09T00:39:12.962Z,99.99
2018-05-09T00:40:12.688Z,99.99
2018-05-09T00:41:12.679Z,99.99
2018-05-09T00:42:12.939Z,99.99
2018-05-09T00:43:12.921Z,99.99
2018-05-09T00:44:12.649Z,99.99
2018-05-09T00:45:12.895Z,99.99
2018-05-09T00:46:12.885Z,99.99
2018-05-09T00:47:12.880Z,99.99
2018-05-09T00:48:12.601Z,99.99
2018-05-09T00:49:12.860Z,99.99
2018-05-09T00:50:12.615Z,99.99
2018-05-09T00:51:12.836Z,99.99
2018-05-09T00:52:12.827Z,99.99
2018-05-09T00:53:12.816Z,99.99
2018-05-09T00:54:12.529Z,99.99
2018-05-09T00:55:12.525Z,99.99
2018-05-09T00:56:12.769Z,99.99
2018-05-09T00:57:12.756Z,99.99
2018-05-09T00:58:12.479Z,99.99
2018-05-09T00:59:12.467Z,99.99
2018-05-09T01:00:12.457Z,99.99
2018-05-09T01:01:12.713Z,99.99
2018-05-09T01:02:12.707Z,99.99
2018-05-09T01:03:12.417Z,99.99
2018-05-09T01:04:12.410Z,99.99
2018-05-09T01:05:12.662Z,99.99
2018-05-09T01:06:12.381Z,99.99
2018-05-09T01:07:12.377Z,99.99
2018-05-09T01:08:12.624Z,99.99
2018-05-09T01:09:12.350Z,99.99
2018-05-09T01:10:12.340Z,99.99
2018-05-09T01:11:12.327Z,99.99
2018-05-09T01:12:12.578Z,99.99
2018-05-09T01:13:12.305Z,99.99
2018-05-09T01:14:12.552Z,99.99
2018-05-09T01:15:12.281Z,99.99
2018-05-09T01:16:12.262Z,99.99
2018-05-09T01:17:12.523Z,99.99
2018-05-09T01:18:12.506Z,99.99
2018-05-09T01:19:12.233Z,99.99
2018-05-09T01:20:12.216Z,99.99
2018-05-09T01:21:12.469Z,99.99
2018-05-09T01:22:12.190Z,99.99
2018-05-09T01:23:12.179Z,99.99
2018-05-09T01:24:12.441Z,99.99
2018-05-09T01:25:12.156Z,99.99
2018-05-09T01:26:12.409Z,99.99
2018-05-09T01:27:12.131Z,99.99
2018-05-09T01:28:12.385Z,99.99
2018-05-09T01:29:12.371Z,99.99
2018-05-09T01:30:12.096Z,99.99
2018-05-09T01:31:12.344Z,99.99
2018-05-09T01:32:12.069Z,99.99
2018-05-09T01:33:12.057Z,99.99
2018-05-09T01:34:12.310Z,99.99
2018-05-09T01:35:12.032Z,99.99
2018-05-09T01:36:12.295Z,99.99
2018-05-09T01:37:12.275Z,99.99
2018-05-09T01:38:12.262Z,99.99
2018-05-09T01:39:11.984Z,99.99
2018-05-09T01:40:11.971Z,99.99
2018-05-09T01:41:11.961Z,99.99
2018-05-09T01:42:12.217Z,99.99
2018-05-09T01:43:11.942Z,99.99
2018-05-09T01:44:12.187Z,99.99
2018-05-09T01:45:12.174Z,99.99
2018-05-09T01:46:12.161Z,99.99
2018-05-09T01:47:11.887Z,99.99
2018-05-09T01:48:12.140Z,99.99
2018-05-09T01:49:11.868Z,99.99
2018-05-09T01:50:12.114Z,99.99
2018-05-09T01:51:12.201Z,99.99
2018-05-09T01:52:11.825Z,99.99
2018-05-09T01:53:12.074Z,99.99
2018-05-09T01:54:12.068Z,99.99
2018-05-09T01:55:12.050Z,99.99
2018-05-09T01:56:11.774Z,99.99
2018-05-09T01:57:11.761Z,99.99
2018-05-09T01:58:12.012Z,99.99
2018-05-09T01:59:11.737Z,99.99
2018-05-09T02:00:11.726Z,99.99
2018-05-09T02:01:11.718Z,99.99
2018-05-09T02:02:11.959Z,99.99
2018-05-09T02:03:11.690Z,99.99
2018-05-09T02:04:12.145Z,99.99
2018-05-09T02:05:11.926Z,99.99
2018-05-09T02:06:12.122Z,99.99
2018-05-09T02:07:11.905Z,99.99
2018-05-09T02:08:11.629Z,99.99
2018-05-09T02:09:11.877Z,99.99
2018-05-09T02:10:11.596Z,99.99
2018-05-09T02:11:11.847Z,99.99
2018-05-09T02:12:11.569Z,99.99
2018-05-09T02:13:11.555Z,99.99
2018-05-09T02:14:11.809Z,99.99
2018-05-09T02:15:11.797Z,99.99
2018-05-09T02:16:11.785Z,99.99
2018-05-09T02:17:11.503Z,99.99
2018-05-09T02:18:11.491Z,99.99
2018-05-09T02:19:11.749Z,99.99
2018-05-09T02:20:11.733Z,99.99
2018-05-09T02:21:11.460Z,99.99
2018-05-09T02:22:11.709Z,99.99
2018-05-09T02:23:11.430Z,99.99
2018-05-09T02:24:11.835Z,99.99
2018-05-09T02:25:11.675Z,99.99
2018-05-09T02:26:11.659Z,99.99
2018-05-09T02:27:11.378Z,99.99
2018-05-09T02:28:11.638Z,99.99
2018-05-09T02:29:11.618Z,99.99
2018-05-09T02:30:11.616Z,99.99
2018-05-09T02:31:11.409Z,99.99
2018-05-09T02:32:11.316Z,99.99
2018-05-09T02:33:11.302Z,99.99
2018-05-09T02:34:11.290Z,99.99
2018-05-09T02:35:11.541Z,99.99
2018-05-09T02:36:11.266Z,99.99
2018-05-09T02:37:11.530Z,99.99
2018-05-09T02:38:11.519Z,99.99
2018-05-09T02:39:11.514Z,99.99
2018-05-09T02:40:11.480Z,99.99
2018-05-09T02:41:11.465Z,99.99
2018-05-09T02:42:11.184Z,99.99
2018-05-09T02:43:11.174Z,99.99
2018-05-09T02:44:11.430Z,99.99
2018-05-09T02:45:11.421Z,99.99
2018-05-09T02:46:11.404Z,99.99
2018-05-09T02:47:11.400Z,99.99
2018-05-09T02:48:11.375Z,99.99
2018-05-09T02:49:11.363Z,99.99
2018-05-09T02:50:11.417Z,99.99
2018-05-09T02:51:11.333Z,99.99
2018-05-09T02:52:11.056Z,99.99
2018-05-09T02:53:11.041Z,99.99
2018-05-09T02:54:11.297Z,99.99
2018-05-09T02:55:11.277Z,99.99
2018-05-09T02:56:11.269Z,99.99
2018-05-09T02:57:11.002Z,99.99
2018-05-09T02:58:11.244Z,99.99
2018-05-09T02:59:10.967Z,99.99
2018-05-09T03:00:11.223Z,99.99
2018-05-09T03:01:11.209Z,99.99
2018-05-09T03:02:10.923Z,99.99
2018-05-09T03:03:11.184Z,99.99
2018-05-09T03:04:11.162Z,99.99
2018-05-09T03:05:10.882Z,99.99
2018-05-09T03:06:11.138Z,99.99
2018-05-09T03:07:11.126Z,99.99
2018-05-09T03:08:11.107Z,99.99
2018-05-09T03:09:10.830Z,99.99
2018-05-09T03:10:11.087Z,99.99
2018-05-09T03:11:11.068Z,99.99
2018-05-09T03:12:11.059Z,99.99
2018-05-09T03:13:11.049Z,99.99
2018-05-09T03:14:10.766Z,99.99
2018-05-09T03:15:11.017Z,99.99
2018-05-09T03:16:11.005Z,99.99
2018-05-09T03:17:10.991Z,99.99
2018-05-09T03:18:10.975Z,99.99
2018-05-09T03:19:10.966Z,99.99
2018-05-09T03:20:10.957Z,99.99
2018-05-09T03:21:10.943Z,99.99
2018-05-09T03:22:10.658Z,99.99
2018-05-09T03:23:10.910Z,99.99
2018-05-09T03:24:10.635Z,99.99
2018-05-09T03:25:10.883Z,99.99
2018-05-09T03:26:10.872Z,99.99
2018-05-09T03:27:10.599Z,99.99
2018-05-09T03:28:10.579Z,99.99
2018-05-09T03:29:10.833Z,99.99
2018-05-09T03:30:10.835Z,99.99
2018-05-09T03:31:10.544Z,99.99
2018-05-09T03:32:10.802Z,99.99
2018-05-09T03:33:10.779Z,99.99
2018-05-09T03:34:10.762Z,99.99
2018-05-09T03:35:10.751Z,99.99
2018-05-09T03:36:10.473Z,99.99
2018-05-09T03:37:10.726Z,99.99
2018-05-09T03:38:10.452Z,99.99
2018-05-09T03:39:10.702Z,99.99
2018-05-09T03:40:10.422Z,99.99
2018-05-09T03:41:10.407Z,99.99
2018-05-09T03:42:10.662Z,99.99
2018-05-09T03:43:10.652Z,99.99
2018-05-09T03:44:10.364Z,99.99
2018-05-09T03:45:10.356Z,99.99
2018-05-09T03:46:10.611Z,99.99
2018-05-09T03:47:10.331Z,99.99
2018-05-09T03:48:10.582Z,99.99
2018-05-09T03:49:10.562Z,99.99
2018-05-09T03:50:10.286Z,99.99
2018-05-09T03:51:10.536Z,99.99
2018-05-09T03:52:10.523Z,99.99
2018-05-09T03:53:10.250Z,99.99
2018-05-09T03:54:10.234Z,99.99
2018-05-09T03:55:10.481Z,99.99
2018-05-09T03:56:10.204Z,99.99
2018-05-09T03:57:10.467Z,99.99
2018-05-09T03:58:10.177Z,99.99
2018-05-09T03:59:10.433Z,99.99
2018-05-09T04:00:10.417Z,99.99
2018-05-09T04:01:10.404Z,99.99
2018-05-09T04:02:10.127Z,99.99
2018-05-09T04:03:10.373Z,99.99
2018-05-09T04:04:10.302Z,99.99
2018-05-09T04:05:10.352Z,99.99
2018-05-09T04:06:10.070Z,99.99
2018-05-09T04:07:10.372Z,99.99
2018-05-09T04:08:10.309Z,99.99
2018-05-09T04:09:10.031Z,99.99
2018-05-09T04:10:10.278Z,99.57
2018-05-09T04:11:10.267Z,99.99
2018-05-09T04:12:10.257Z,99.99
2018-05-09T04:13:10.373Z,99.99
2018-05-09T04:14:09.963Z,99.99
2018-05-09T04:15:09.955Z,99.99
2018-05-09T04:16:10.201Z,99.99
2018-05-09T04:17:09.926Z,99.99
2018-05-09T04:18:10.177Z,99.99
2018-05-09T04:19:09.899Z,99.99
2018-05-09T04:20:09.892Z,99.99
2018-05-09T04:21:10.141Z,99.99
2018-05-09T04:22:10.120Z,99.99
2018-05-09T04:23:10.107Z,99.99
2018-05-09T04:24:10.095Z,99.99
2018-05-09T04:25:09.818Z,99.99
2018-05-09T04:26:09.802Z,99.99
2018-05-09T04:27:09.791Z,99.99
2018-05-09T04:28:10.112Z,99.99
2018-05-09T04:29:09.764Z,99.99
2018-05-09T04:30:10.025Z,99.95
2018-05-09T04:31:10.005Z,99.99
2018-05-09T04:32:09.987Z,99.95
2018-05-09T04:33:09.710Z,99.99
2018-05-09T04:34:09.961Z,99.99
2018-05-09T04:35:09.990Z,99.76
2018-05-09T04:36:10.044Z,99.76
2018-05-09T04:37:09.655Z,99.57
2018-05-09T04:38:09.645Z,99.66
2018-05-09T04:39:09.629Z,99.95
2018-05-09T04:40:09.616Z,99.99
2018-05-09T04:41:09.869Z,99.76
2018-05-09T04:42:09.965Z,99.76
2018-05-09T04:43:09.577Z,99.48
2018-05-09T04:44:09.561Z,99.57
2018-05-09T04:45:09.556Z,99.76
2018-05-09T04:46:09.798Z,99.76
2018-05-09T04:47:09.523Z,99.76
2018-05-09T04:48:09.510Z,99.99
2018-05-09T04:49:09.827Z,99.66
2018-05-09T04:50:09.745Z,99.99
2018-05-09T04:51:09.736Z,99.66
2018-05-09T04:52:09.718Z,99.76
2018-05-09T04:53:09.708Z,99.85
2018-05-09T04:54:09.697Z,99.76
2018-05-09T04:55:09.684Z,99.19
2018-05-09T04:56:09.666Z,98.99
2018-05-09T04:57:09.387Z,98.71
2018-05-09T04:58:09.381Z,98.9
2018-05-09T04:59:09.632Z,98.61
2018-05-09T05:00:09.351Z,98.99
2018-05-09T05:01:09.342Z,98.52
2018-05-09T05:02:09.589Z,98.9
2018-05-09T05:03:09.310Z,99.28
2018-05-09T05:04:09.560Z,98.71
2018-05-09T05:05:09.548Z,98.61
2018-05-09T05:06:09.534Z,98.71
2018-05-09T05:07:09.258Z,98.71
2018-05-09T05:08:09.253Z,97.75
2018-05-09T05:09:09.503Z,98.75
2018-05-09T05:10:09.481Z,98.28
2018-05-09T05:11:09.204Z,98.75
2018-05-09T05:12:09.458Z,98.09
2018-05-09T05:13:09.178Z,98.38
2018-05-09T05:14:09.163Z,98.47
2018-05-09T05:15:09.417Z,98.09
2018-05-09T05:16:09.136Z,97.42
2018-05-09T05:17:09.391Z,97.8
2018-05-09T05:18:09.388Z,98.38
2018-05-09T05:19:09.095Z,97.42
2018-05-09T05:20:09.353Z,98.09
2018-05-09T05:21:09.072Z,97.71
2018-05-09T05:22:09.059Z,97.71
2018-05-09T05:23:09.044Z,97.9
2018-05-09T05:24:09.035Z,98.09
2018-05-09T05:25:09.296Z,98.09
2018-05-09T05:26:09.273Z,97.9
2018-05-09T05:27:09.080Z,97.85
2018-05-09T05:28:08.983Z,98.04
2018-05-09T05:29:08.977Z,97.66
2018-05-09T05:30:08.961Z,97.85
2018-05-09T05:31:08.944Z,98.71
2018-05-09T05:32:09.196Z,98.24
2018-05-09T05:33:09.189Z,98.71
2018-05-09T05:34:09.172Z,98.52
2018-05-09T05:35:09.165Z,98.52
2018-05-09T05:36:08.879Z,98.52
2018-05-09T05:37:08.868Z,98.61
2018-05-09T05:38:09.120Z,98.71
2018-05-09T05:39:08.842Z,98.43
2018-05-09T05:40:08.873Z,99.33
2018-05-09T05:41:08.818Z,98.57
2018-05-09T05:42:09.077Z,98.57
2018-05-09T05:43:08.794Z,98.09
2018-05-09T05:44:09.051Z,98.38
2018-05-09T05:45:09.383Z,98.09
2018-05-09T05:46:09.021Z,99.15
2018-05-09T05:47:09.006Z,99.05
2018-05-09T05:48:08.994Z,98.66
2018-05-09T05:49:08.716Z,99.15
2018-05-09T05:50:08.973Z,99.15
2018-05-09T05:51:08.693Z,98.62
2018-05-09T05:52:08.678Z,99.81
2018-05-09T05:53:08.933Z,99.58
2018-05-09T05:54:08.659Z,99.43
2018-05-09T05:55:08.640Z,99.72
2018-05-09T05:56:09.104Z,99.96
2018-05-09T05:57:08.616Z,99.87
2018-05-09T05:58:08.873Z,99.19
2018-05-09T05:59:08.860Z,99.99
2018-05-09T06:00:08.845Z,99.99
2018-05-09T06:01:08.836Z,99.77
2018-05-09T06:02:08.558Z,99.77
2018-05-09T06:03:08.893Z,99.99
2018-05-09T06:04:09.201Z,99.99
2018-05-09T06:05:08.790Z,99.67
2018-05-09T06:06:08.508Z,99.99
2018-05-09T06:07:08.762Z,99.99
2018-05-09T06:08:08.751Z,99.99
2018-05-09T06:09:08.477Z,99.99
2018-05-09T06:10:08.815Z,99.99
2018-05-09T06:11:08.448Z,99.99
2018-05-09T06:12:08.702Z,99.99
2018-05-09T06:13:08.692Z,99.82
2018-05-09T06:14:08.411Z,99.99
2018-05-09T06:15:08.406Z,99.99
2018-05-09T06:16:08.664Z,99.99
2018-05-09T06:17:08.796Z,99.99
2018-05-09T06:18:08.367Z,99.99
2018-05-09T06:19:08.364Z,99.99
2018-05-09T06:20:08.608Z,99.99
2018-05-09T06:21:08.333Z,99.99
2018-05-09T06:22:08.323Z,99.99
2018-05-09T06:23:08.581Z,99.99
2018-05-09T06:24:08.327Z,99.99
2018-05-09T06:25:08.285Z,99.99
2018-05-09T06:26:08.545Z,99.99
2018-05-09T06:27:08.262Z,99.99
2018-05-09T06:28:08.519Z,99.99
2018-05-09T06:29:08.516Z,99.99
2018-05-09T06:30:08.497Z,99.99
2018-05-09T06:31:08.217Z,99.99
2018-05-09T06:32:08.471Z,99.99
2018-05-09T06:33:08.201Z,99.99
2018-05-09T06:34:08.457Z,99.99
2018-05-09T06:35:08.449Z,99.99
2018-05-09T06:36:08.429Z,99.99
2018-05-09T06:37:08.151Z,99.99
2018-05-09T06:38:08.143Z,99.99
2018-05-09T06:39:08.396Z,99.99
2018-05-09T06:40:08.382Z,99.99
2018-05-09T06:41:08.105Z,99.99
2018-05-09T06:42:08.358Z,99.99
2018-05-09T06:43:08.081Z,99.99
2018-05-09T06:44:08.339Z,99.99
2018-05-09T06:45:08.063Z,99.99
2018-05-09T06:46:08.317Z,99.99
2018-05-09T06:47:08.305Z,99.99
2018-05-09T06:48:08.033Z,99.99
2018-05-09T06:49:08.020Z,99.99
2018-05-09T06:50:08.444Z,99.99
2018-05-09T06:51:08.264Z,99.99
2018-05-09T06:52:08.250Z,99.99
2018-05-09T06:53:08.241Z,99.99
2018-05-09T06:54:07.962Z,99.99
2018-05-09T06:55:08.217Z,99.99
2018-05-09T06:56:07.946Z,99.99
2018-05-09T06:57:07.932Z,99.99
2018-05-09T06:58:08.193Z,99.99
2018-05-09T06:59:07.952Z,99.99
2018-05-09T07:00:07.904Z,99.99
2018-05-09T07:01:08.162Z,99.99
2018-05-09T07:02:07.883Z,99.99
2018-05-09T07:03:08.137Z,99.99
2018-05-09T07:04:08.123Z,99.99
2018-05-09T07:05:08.127Z,99.99
2018-05-09T07:06:08.243Z,99.99
2018-05-09T07:07:07.831Z,99.99
2018-05-09T07:08:08.084Z,99.99
2018-05-09T07:09:07.812Z,99.99
2018-05-09T07:10:08.066Z,99.99
2018-05-09T07:11:08.067Z,99.99
2018-05-09T07:12:08.042Z,99.99
2018-05-09T07:13:08.034Z,99.99
2018-05-09T07:14:07.759Z,99.99
2018-05-09T07:15:08.021Z,99.99
2018-05-09T07:16:07.748Z,99.99
2018-05-09T07:17:07.729Z,99.99
2018-05-09T07:18:07.984Z,99.99
2018-05-09T07:19:07.711Z,99.99
2018-05-09T07:20:07.697Z,99.99
2018-05-09T07:21:07.693Z,99.99
2018-05-09T07:22:08.078Z,99.99
2018-05-09T07:23:07.988Z,99.99
2018-05-09T07:24:07.927Z,99.99
2018-05-09T07:25:07.649Z,99.99
2018-05-09T07:26:07.908Z,99.99
2018-05-09T07:27:07.895Z,99.99
2018-05-09T07:28:07.890Z,99.99
2018-05-09T07:29:07.613Z,99.99
2018-05-09T07:30:07.610Z,99.99
2018-05-09T07:31:07.602Z,99.99
2018-05-09T07:32:07.853Z,99.99
2018-05-09T07:33:07.595Z,99.99
2018-05-09T07:34:07.839Z,99.99
2018-05-09T07:35:07.577Z,99.99
2018-05-09T07:36:07.559Z,99.99
2018-05-09T07:37:07.604Z,99.99
2018-05-09T07:38:07.553Z,99.99
2018-05-09T07:39:07.827Z,99.99
2018-05-09T07:40:07.807Z,99.99
2018-05-09T07:41:07.562Z,99.99
2018-05-09T07:42:07.595Z,99.99
2018-05-09T07:43:07.597Z,99.99
2018-05-09T07:44:07.522Z,99.99
2018-05-09T07:45:07.785Z,99.99
2018-05-09T07:46:07.776Z,99.99
2018-05-09T07:47:07.782Z,99.99
2018-05-09T07:48:07.767Z,99.99
2018-05-09T07:49:07.502Z,99.99
2018-05-09T07:50:07.761Z,99.99
2018-05-09T07:51:07.761Z,99.99
2018-05-09T07:52:07.746Z,99.99
2018-05-09T07:53:07.497Z,99.99
2018-05-09T07:54:07.744Z,99.99
2018-05-09T07:55:07.763Z,99.99
2018-05-09T07:56:07.463Z,99.99
2018-05-09T07:57:07.468Z,99.99
2018-05-09T07:58:07.534Z,97.62
2018-05-09T07:59:07.733Z,95.79
2018-05-09T08:00:07.449Z,93.42
2018-05-09T08:01:07.736Z,92.55
2018-05-09T08:02:07.705Z,93.23
2018-05-09T08:03:07.731Z,96.31
2018-05-09T08:04:07.698Z,95.35
2018-05-09T08:05:07.437Z,93.66
2018-05-09T08:06:07.457Z,92.02
2018-05-09T08:07:07.439Z,94.43
2018-05-09T08:08:07.421Z,92.79
2018-05-09T08:09:07.688Z,93.85
2018-05-09T08:10:07.408Z,94.72
2018-05-09T08:11:07.405Z,95.78
2018-05-09T08:12:07.667Z,86.99
2018-05-09T08:13:07.661Z,85.08
2018-05-09T08:14:07.668Z,81.33
2018-05-09T08:15:07.393Z,76.5
2018-05-09T08:16:07.656Z,73.75
2018-05-09T08:17:07.390Z,66.14
2018-05-09T08:18:07.387Z,64.65
2018-05-09T08:19:07.383Z,64.39
2018-05-09T08:20:07.652Z,64.16
2018-05-09T08:21:07.384Z,63.44
2018-05-09T08:22:07.382Z,61.55
2018-05-09T08:23:07.388Z,57.18
2018-05-09T08:24:07.387Z,57.11
2018-05-09T08:25:07.384Z,53.88
2018-05-09T08:26:07.642Z,52.73
2018-05-09T08:27:07.656Z,51.95
2018-05-09T08:28:07.645Z,52.37
2018-05-09T08:29:07.389Z,52.59
2018-05-09T08:30:07.648Z,51.93
2018-05-09T08:31:07.659Z,50.85
2018-05-09T08:32:07.654Z,50.27
2018-05-09T08:33:07.648Z,51.81
2018-05-09T08:34:07.655Z,52.67
2018-05-09T08:35:07.393Z,53.91
2018-05-09T08:36:07.660Z,53.54
2018-05-09T08:37:07.386Z,54.98
2018-05-09T08:38:07.654Z,55.34
2018-05-09T08:39:07.662Z,55.73
2018-05-09T08:40:07.651Z,57.56
2018-05-09T08:41:07.648Z,59.28
2018-05-09T08:42:07.661Z,59.35
2018-05-09T08:43:07.389Z,58.94
2018-05-09T08:44:07.977Z,59.46
2018-05-09T08:45:07.384Z,62.64
2018-05-09T08:46:07.653Z,63.87
2018-05-09T08:47:07.647Z,62.51
2018-05-09T08:48:07.379Z,62.71
2018-05-09T08:49:07.645Z,64.07
2018-05-09T08:50:07.374Z,64.39
2018-05-09T08:51:07.645Z,64
2018-05-09T08:52:07.371Z,65.17
2018-05-09T08:53:07.635Z,65.89
2018-05-09T08:54:07.644Z,66.86
2018-05-09T08:55:07.372Z,67.02
2018-05-09T08:56:07.362Z,65.37
2018-05-09T08:57:07.360Z,64.26
2018-05-09T08:58:07.359Z,65.43
2018-05-09T08:59:07.352Z,66.27
2018-05-09T09:00:07.613Z,66.17
2018-05-09T09:01:07.347Z,67.89
2018-05-09T09:02:07.340Z,67.21
2018-05-09T09:03:07.347Z,67.57
2018-05-09T09:04:07.340Z,68.73
2018-05-09T09:05:07.609Z,66.11
2018-05-09T09:06:07.596Z,65.82
2018-05-09T09:07:07.323Z,65.24
2018-05-09T09:08:07.325Z,66.02
2018-05-09T09:09:07.585Z,66.02
2018-05-09T09:10:07.576Z,67.92
2018-05-09T09:11:07.756Z,67.92
2018-05-09T09:12:07.571Z,67.82
2018-05-09T09:13:07.299Z,68.7
2018-05-09T09:14:07.300Z,67.92
2018-05-09T09:15:07.563Z,67.63
2018-05-09T09:16:07.290Z,66.17
2018-05-09T09:17:07.553Z,67.14
2018-05-09T09:18:07.283Z,66.27
2018-05-09T09:19:07.542Z,66.27
2018-05-09T09:20:07.545Z,65.3
2018-05-09T09:21:07.273Z,65.59
2018-05-09T09:22:07.297Z,66.37
2018-05-09T09:23:07.595Z,66.66
2018-05-09T09:24:07.563Z,66.95
2018-05-09T09:25:07.331Z,66.66
2018-05-09T09:26:07.243Z,68.21
2018-05-09T09:27:07.530Z,67.34
2018-05-09T09:28:07.261Z,66.05
2018-05-09T09:29:07.595Z,65.95
2018-05-09T09:30:07.544Z,66.27
2018-05-09T09:31:07.549Z,65.69
2018-05-09T09:32:07.546Z,65.69
2018-05-09T09:33:07.476Z,67.24
2018-05-09T09:34:07.216Z,66.08
2018-05-09T09:35:07.473Z,66.85
2018-05-09T09:36:07.460Z,67.6
2018-05-09T09:37:07.192Z,65.85
2018-05-09T09:38:07.187Z,65.47
2018-05-09T09:39:07.472Z,62.56
2018-05-09T09:40:07.179Z,61.69
2018-05-09T09:41:07.451Z,63.56
2018-05-09T09:42:07.429Z,63.17
2018-05-09T09:43:07.452Z,63.82
2018-05-09T09:44:07.423Z,63.27
2018-05-09T09:45:07.149Z,64.04
2018-05-09T09:46:07.422Z,64.82
2018-05-09T09:47:07.405Z,64.43
2018-05-09T09:48:07.401Z,64.82
2018-05-09T09:49:07.398Z,63.65
2018-05-09T09:50:07.389Z,64.34
2018-05-09T09:51:07.119Z,64.43
2018-05-09T09:52:07.112Z,63.95
2018-05-09T09:53:07.371Z,64.14
2018-05-09T09:54:07.369Z,64.92
2018-05-09T09:55:07.362Z,64.62
2018-05-09T09:56:07.094Z,63.56
2018-05-09T09:57:07.352Z,65.37
2018-05-09T09:58:07.348Z,63.53
2018-05-09T09:59:07.342Z,63.53
2018-05-09T10:00:07.071Z,62.98
2018-05-09T10:01:07.333Z,64.24
2018-05-09T10:02:07.327Z,64.34
2018-05-09T10:03:07.323Z,63.95
2018-05-09T10:04:07.315Z,65.75
2018-05-09T10:05:07.248Z,65.89
2018-05-09T10:06:07.039Z,65.11
2018-05-09T10:07:07.113Z,66.17
2018-05-09T10:08:07.530Z,65.98
2018-05-09T10:09:07.294Z,65.11
2018-05-09T10:10:07.022Z,64.72
2018-05-09T10:11:07.286Z,63.95
2018-05-09T10:12:07.276Z,62.1
2018-05-09T10:13:07.266Z,62.82
2018-05-09T10:14:06.999Z,62.52
2018-05-09T10:15:07.272Z,64.56
2018-05-09T10:16:07.389Z,62.82
2018-05-09T10:17:07.256Z,64.53
2018-05-09T10:18:07.253Z,62.23
2018-05-09T10:19:07.241Z,62.04
2018-05-09T10:20:06.972Z,62.52
2018-05-09T10:21:07.236Z,61.65
2018-05-09T10:22:06.967Z,60.61
2018-05-09T10:23:07.013Z,58.19
2018-05-09T10:24:07.219Z,61.78
2018-05-09T10:25:06.952Z,62.1
2018-05-09T10:26:07.213Z,63.68
2018-05-09T10:27:07.209Z,60.35
2018-05-09T10:28:07.212Z,58.92
2018-05-09T10:29:06.941Z,59.33
2018-05-09T10:30:07.213Z,54.62
2018-05-09T10:31:07.209Z,52.6
2018-05-09T10:32:06.940Z,50.48
2018-05-09T10:33:07.220Z,49.15
2018-05-09T10:34:06.944Z,50.85
2018-05-09T10:35:07.209Z,49.71
2018-05-09T10:36:06.948Z,47.19
2018-05-09T10:37:07.221Z,45.84
2018-05-09T10:38:07.215Z,49.68
2018-05-09T10:39:06.956Z,46.77
2018-05-09T10:40:07.229Z,46.03
2018-05-09T10:41:07.226Z,43.12
2018-05-09T10:42:07.228Z,44.66
2018-05-09T10:43:07.235Z,44.07
2018-05-09T10:44:07.236Z,46.42
2018-05-09T10:45:07.243Z,42.99
2018-05-09T10:46:07.255Z,43.93
2018-05-09T10:47:06.988Z,43.44
2018-05-09T10:48:07.265Z,46.57
2018-05-09T10:49:07.263Z,44.46
2018-05-09T10:50:07.272Z,45.44
2018-05-09T10:51:07.009Z,43.9
2018-05-09T10:52:07.280Z,44.38
2018-05-09T10:53:07.022Z,45.39
2018-05-09T10:54:07.027Z,46.66
2018-05-09T10:55:07.304Z,46.41
2018-05-09T10:56:07.037Z,42.71
2018-05-09T10:57:07.332Z,43.1
2018-05-09T10:58:07.321Z,41.63
2018-05-09T10:59:07.059Z,41.53
2018-05-09T11:00:07.065Z,42.9
2018-05-09T11:01:07.069Z,43.71
2018-05-09T11:02:07.349Z,42.63
2018-05-09T11:03:07.084Z,41.35
2018-05-09T11:04:07.356Z,41.37
2018-05-09T11:05:07.196Z,40.98
2018-05-09T11:06:07.374Z,41.09
2018-05-09T11:07:07.383Z,41.96
2018-05-09T11:08:07.389Z,42.85
2018-05-09T11:09:07.394Z,41.19
2018-05-09T11:10:07.405Z,41.49
2018-05-09T11:11:07.153Z,39.82
2018-05-09T11:12:07.427Z,39.34
2018-05-09T11:13:07.170Z,38.76
2018-05-09T11:14:07.429Z,36.79
2018-05-09T11:15:07.171Z,37.54
2018-05-09T11:16:07.179Z,38.72
2018-05-09T11:17:07.467Z,39.82
2018-05-09T11:18:07.467Z,38.56
2018-05-09T11:19:07.203Z,39.74
2018-05-09T11:20:07.209Z,38.97
2018-05-09T11:21:07.494Z,39.87
2018-05-09T11:22:07.222Z,40.08
2018-05-09T11:23:07.498Z,37.61
2018-05-09T11:24:07.506Z,36.61
2018-05-09T11:25:07.520Z,37.36
2018-05-09T11:26:07.524Z,39.72
2018-05-09T11:27:07.263Z,37.57
2018-05-09T11:28:07.286Z,39.13
2018-05-09T11:29:07.553Z,37.55
2018-05-09T11:30:07.557Z,38.17
2018-05-09T11:31:07.300Z,37.99
2018-05-09T11:32:07.573Z,37.89
2018-05-09T11:33:07.591Z,36.99
2018-05-09T11:34:07.321Z,37.08
2018-05-09T11:35:07.334Z,36.8
2018-05-09T11:36:07.617Z,37.01
2018-05-09T11:37:07.613Z,37.1
2018-05-09T11:38:07.626Z,37.12
2018-05-09T11:39:07.363Z,35.66
2018-05-09T11:40:07.376Z,37.61
2018-05-09T11:41:07.650Z,37.1
2018-05-09T11:42:07.653Z,37.97
2018-05-09T11:43:07.665Z,37.18
2018-05-09T11:44:07.403Z,37.18
2018-05-09T11:45:07.682Z,38.13
2018-05-09T11:46:07.425Z,39.09
2018-05-09T11:47:07.728Z,40.41
2018-05-09T11:48:07.707Z,41.41
2018-05-09T11:49:07.726Z,39.47
2018-05-09T11:50:07.722Z,41.19
2018-05-09T11:51:07.759Z,42.88
2018-05-09T11:52:07.742Z,42.1
2018-05-09T11:53:07.961Z,42.19
2018-05-09T11:54:07.759Z,41.29
2018-05-09T11:55:07.790Z,41.09
2018-05-09T11:56:07.776Z,41.31
2018-05-09T11:57:07.790Z,42.88
2018-05-09T11:58:07.523Z,43.22
2018-05-09T11:59:07.858Z,40.76
2018-05-09T12:00:07.804Z,43.04
2018-05-09T12:01:07.813Z,40.7
2018-05-09T12:02:07.567Z,40.41
2018-05-09T12:03:07.571Z,41.41
2018-05-09T12:04:07.833Z,38.58
2018-05-09T12:05:08.045Z,37.71
2018-05-09T12:06:07.585Z,38.71
2018-05-09T12:07:07.872Z,37.93
2018-05-09T12:08:07.870Z,39.52
2018-05-09T12:09:07.887Z,37.65
2018-05-09T12:10:07.618Z,38.64
2018-05-09T12:11:07.904Z,37.96
2018-05-09T12:12:07.908Z,36.9
2018-05-09T12:13:07.914Z,36.4
2018-05-09T12:14:07.649Z,37.47
2018-05-09T12:15:07.936Z,38.56
2018-05-09T12:16:07.667Z,38.56
2018-05-09T12:17:07.943Z,39.52
2018-05-09T12:18:07.955Z,39.25
2018-05-09T12:19:07.971Z,38.35
2018-05-09T12:20:07.707Z,37.24
2018-05-09T12:21:07.710Z,38.3
2018-05-09T12:22:07.728Z,39.37
2018-05-09T12:23:07.735Z,40.23
2018-05-09T12:24:07.998Z,38.38
2018-05-09T12:25:08.006Z,40.13
2018-05-09T12:26:07.754Z,38.58
2018-05-09T12:27:07.758Z,39.26
2018-05-09T12:28:08.029Z,39.28
2018-05-09T12:29:08.045Z,38.62
2018-05-09T12:30:07.788Z,37.35
2018-05-09T12:31:08.057Z,37.87
2018-05-09T12:32:07.799Z,38.51
2018-05-09T12:33:08.078Z,40.66
2018-05-09T12:34:08.085Z,38.42
2018-05-09T12:35:07.827Z,38.42
2018-05-09T12:36:08.106Z,38.7
2018-05-09T12:37:07.851Z,39.48
2018-05-09T12:38:08.119Z,38.4
2018-05-09T12:39:07.858Z,38.51
2018-05-09T12:40:08.141Z,40.76
2018-05-09T12:41:08.143Z,39.68
2018-05-09T12:42:08.154Z,40.98
2018-05-09T12:43:08.159Z,39.01
2018-05-09T12:44:07.906Z,37.83
2018-05-09T12:45:08.177Z,40.09
2018-05-09T12:46:07.922Z,38.24
2018-05-09T12:47:07.937Z,38.6
2018-05-09T12:48:08.203Z,39.76
2018-05-09T12:49:08.214Z,40.35
2018-05-09T12:50:08.222Z,39.78
2018-05-09T12:51:08.231Z,41.04
2018-05-09T12:52:07.974Z,38.4
2018-05-09T12:53:08.251Z,40.55